Time;durP1;ratioP1;P1;durP2;ratioP2;P2;SDS_P1;SDS_P2;PMS_P1;PMS_P2;Temp;Humidity;BMP_temperature;BMP_pressure;BME280_temperature;BME280_humidity;BME280_pressure;Samples;Min_cycle;Max_cycle;Signal;HPM_P1;HPM_P2
2023/08/12 00:07:37;;;;;;;9.02;4.25;;;20.10;19.00;;;;;;20877409;28;20048;-41
2023/08/12 00:17:41;;;;;;;6.97;3.97;;;20.10;18.30;;;;;;20875365;28;20131;-41
2023/08/12 00:27:41;;;;;;;10.57;4.85;;;20.10;20.50;;;;;;20874587;28;20164;-41
2023/08/12 00:37:42;;;;;;;9.82;4.38;;;20.10;24.10;;;;;;20874706;28;20037;-40
2023/08/12 00:47:42;;;;;;;9.00;4.63;;;20.10;27.30;;;;;;20872455;28;20139;-41
2023/08/12 00:57:43;;;;;;;9.32;4.90;;;20.00;29.80;;;;;;20873618;28;20041;-41
2023/08/12 01:07:45;;;;;;;9.02;5.30;;;20.00;32.40;;;;;;20870658;28;20110;-41
2023/08/12 01:17:47;;;;;;;9.90;5.38;;;20.00;34.50;;;;;;20870325;28;20033;-41
2023/08/12 01:27:47;;;;;;;13.30;5.68;;;20.00;37.80;;;;;;20870148;28;20043;-41
2023/08/12 01:37:51;;;;;;;12.50;6.68;;;19.90;59.10;;;;;;20869856;28;20029;-40
2023/08/12 01:47:51;;;;;;;10.52;6.43;;;20.00;56.40;;;;;;20868205;28;20099;-41
2023/08/12 01:57:52;;;;;;;9.25;4.65;;;20.00;62.60;;;;;;20868929;28;20374;-41
2023/08/12 02:07:52;;;;;;;9.02;5.55;;;20.00;60.40;;;;;;20868858;28;20049;-41
2023/08/12 02:17:53;;;;;;;12.45;7.90;;;20.10;53.50;;;;;;20863923;28;20033;-41
2023/08/12 02:27:53;;;;;;;13.35;8.40;;;20.20;56.70;;;;;;20868735;28;20041;-41
2023/08/12 02:37:54;;;;;;;16.90;9.85;;;20.20;61.00;;;;;;20873992;28;20063;-41
2023/08/12 02:47:54;;;;;;;16.42;10.75;;;20.20;74.90;;;;;;20882446;28;20041;-41
2023/08/12 02:57:55;;;;;;;17.50;11.88;;;20.20;84.90;;;;;;20882749;28;20106;-41
2023/08/12 03:07:57;;;;;;;13.18;8.95;;;20.20;90.30;;;;;;20883212;28;20040;-40
2023/08/12 03:17:57;;;;;;;15.38;10.75;;;20.30;82.50;;;;;;20878678;28;20681;-41
2023/08/12 03:27:58;;;;;;;12.38;8.15;;;20.30;91.70;;;;;;20878567;28;20041;-41
2023/08/12 03:37:58;;;;;;;13.68;9.00;;;20.30;82.70;;;;;;20879376;28;20094;-41
2023/08/12 03:47:59;;;;;;;16.70;10.48;;;20.30;78.10;;;;;;20850689;28;20045;-41
2023/08/12 03:58:00;;;;;;;14.60;9.98;;;20.10;99.90;;;;;;20877904;28;20029;-41
2023/08/12 04:08:01;;;;;;;15.35;10.27;;;19.90;99.90;;;;;;20877146;28;20384;-41
2023/08/12 04:18:01;;;;;;;16.60;10.52;;;19.90;99.90;;;;;;20875467;28;20041;-41
2023/08/12 04:28:02;;;;;;;18.75;10.43;;;20.00;99.90;;;;;;20875898;28;20029;-41
2023/08/12 04:38:03;;;;;;;23.53;12.27;;;20.00;99.90;;;;;;20873883;28;20036;-41
2023/08/12 04:48:04;;;;;;;19.05;11.63;;;20.00;99.90;;;;;;20868802;28;20148;-41
2023/08/12 04:58:04;;;;;;;16.70;9.93;;;20.10;99.90;;;;;;20869227;28;20033;-41
2023/08/12 05:08:05;;;;;;;20.77;12.47;;;20.10;99.90;;;;;;20872401;28;20041;-41
2023/08/12 05:18:06;;;;;;;20.77;13.20;;;20.10;99.90;;;;;;20869625;28;20044;-41
2023/08/12 05:28:07;;;;;;;20.45;12.50;;;20.10;99.90;;;;;;20871019;28;20495;-41
2023/08/12 05:38:08;;;;;;;19.20;12.85;;;20.20;99.90;;;;;;20870603;28;20029;-41
2023/08/12 05:48:08;;;;;;;15.98;10.52;;;20.20;99.90;;;;;;20868302;28;20501;-41
2023/08/12 05:58:09;;;;;;;16.10;11.85;;;20.20;99.90;;;;;;20869240;28;20555;-42
2023/08/12 06:08:09;;;;;;;19.90;13.98;;;19.90;99.90;;;;;;20869364;28;20037;-43
2023/08/12 06:18:10;;;;;;;11.80;8.40;;;19.70;99.90;;;;;;20880067;28;20648;-44
2023/08/12 06:28:10;;;;;;;11.90;6.43;;;19.50;99.90;;;;;;20881903;28;20036;-44
2023/08/12 06:38:11;;;;;;;8.23;4.75;;;19.30;99.90;;;;;;20883801;28;20511;-44
2023/08/12 06:48:12;;;;;;;5.32;3.58;;;19.20;99.90;;;;;;20882004;28;20049;-45
2023/08/12 06:58:14;;;;;;;5.73;3.07;;;19.10;99.90;;;;;;20880015;28;20036;-45
2023/08/12 07:08:15;;;;;;;4.82;3.13;;;19.10;99.90;;;;;;20879827;28;20052;-45
2023/08/12 07:18:15;;;;;;;6.70;4.00;;;19.10;99.90;;;;;;20880773;28;20040;-44
2023/08/12 07:28:16;;;;;;;6.03;4.10;;;19.20;99.90;;;;;;20878099;28;20071;-44
2023/08/12 07:38:16;;;;;;;4.40;3.10;;;19.30;99.90;;;;;;20880688;28;20111;-45
2023/08/12 07:48:17;;;;;;;4.05;2.65;;;19.30;99.90;;;;;;20856776;28;20041;-45
2023/08/12 07:58:18;;;;;;;3.22;1.92;;;19.30;99.90;;;;;;20875965;28;20431;-45
2023/08/12 08:08:19;;;;;;;3.40;1.73;;;19.30;99.90;;;;;;20876620;28;20045;-44
2023/08/12 08:18:20;;;;;;;4.78;2.08;;;19.30;99.90;;;;;;20876007;28;20049;-44
2023/08/12 08:28:21;;;;;;;5.95;2.05;;;19.00;99.90;;;;;;20872354;28;20353;-45
2023/08/12 08:38:21;;;;;;;6.72;2.03;;;18.30;99.90;;;;;;20874993;28;20072;-45
2023/08/12 08:48:22;;;;;;;6.72;1.98;;;17.80;99.90;;;;;;20872823;28;20049;-44
2023/08/12 08:58:22;;;;;;;6.72;1.77;;;17.60;99.90;;;;;;20870465;28;20094;-44
2023/08/12 09:08:24;;;;;;;5.68;1.85;;;17.30;99.90;;;;;;20871448;28;20036;-44
2023/08/12 09:18:26;;;;;;;5.32;1.77;;;17.30;99.90;;;;;;20870392;28;20484;-43
2023/08/12 09:28:26;;;;;;;6.30;2.22;;;17.50;99.90;;;;;;20869481;28;20048;-43
2023/08/12 09:38:27;;;;;;;7.60;2.05;;;17.70;99.90;;;;;;20870287;28;20074;-43
2023/08/12 09:48:28;;;;;;;10.30;2.47;;;18.20;99.90;;;;;;20869293;28;20449;-42
2023/08/12 09:58:29;;;;;;;8.70;2.63;;;18.40;99.90;;;;;;20865525;28;20033;-42
2023/08/12 10:08:31;;;;;;;8.85;3.47;;;19.10;99.90;;;;;;20866575;28;20477;-43
2023/08/12 10:18:33;;;;;;;8.00;2.38;;;19.90;99.90;;;;;;20868719;28;20037;-42
2023/08/12 10:28:36;;;;;;;5.57;2.00;;;20.80;99.90;;;;;;20866968;28;20053;-43
2023/08/12 10:38:37;;;;;;;9.57;1.42;;;20.50;45.00;;;;;;20867052;28;20033;-42
2023/08/12 10:48:56;;;;;;;4.07;1.13;;;20.90;1.00;;;;;;20867205;28;20480;-42
2023/08/12 10:58:57;;;;;;;5.18;1.55;;;21.20;1.00;;;;;;20869894;28;20041;-42
2023/08/12 11:08:59;;;;;;;6.50;1.73;;;21.20;1.00;;;;;;20880644;28;20447;-42
2023/08/12 11:18:59;;;;;;;4.28;1.38;;;21.60;1.00;;;;;;20879896;28;20037;-42
2023/08/12 11:29:00;;;;;;;5.22;1.42;;;21.90;1.00;;;;;;20880823;28;20041;-42
2023/08/12 11:39:01;;;;;;;7.57;1.60;;;22.30;1.00;;;;;;20877875;28;20045;-42
2023/08/12 11:49:02;;;;;;;6.00;1.40;;;22.70;1.00;;;;;;20878921;28;20049;-42
2023/08/12 11:59:04;;;;;;;8.87;2.13;;;23.10;1.00;;;;;;20876396;28;20047;-42
2023/08/12 12:09:09;;;;;;;7.78;1.30;;;23.30;1.00;;;;;;20876044;28;20471;-42
2023/08/12 12:19:17;;;;;;;9.43;1.75;;;23.60;1.00;;;;;;20875448;28;20033;-42
2023/08/12 12:29:18;;;;;;;4.30;1.42;;;23.80;1.00;;;;;;20874434;28;20079;-42
2023/08/12 12:39:18;;;;;;;5.32;1.63;;;24.40;1.00;;;;;;20875579;28;20033;-42
2023/08/12 12:49:21;;;;;;;5.95;1.65;;;24.60;1.00;;;;;;20873326;28;20056;-42
2023/08/12 12:59:21;;;;;;;5.63;1.55;;;24.90;1.00;;;;;;20869884;28;20116;-42
2023/08/12 13:09:22;;;;;;;8.48;1.67;;;24.90;1.00;;;;;;20871164;28;20049;-42
2023/08/12 13:19:23;;;;;;;6.33;1.63;;;24.20;1.00;;;;;;20871412;28;20037;-41
2023/08/12 13:29:23;;;;;;;8.43;1.50;;;24.60;1.00;;;;;;20869077;28;20091;-42
2023/08/12 13:39:24;;;;;;;10.13;1.93;;;25.20;1.00;;;;;;20872026;28;20058;-41
2023/08/12 13:49:24;;;;;;;9.90;1.88;;;25.40;1.00;;;;;;20868803;28;20053;-41
2023/08/12 13:59:25;;;;;;;6.53;1.50;;;25.30;1.00;;;;;;20866034;28;20873;-41
2023/08/12 14:09:25;;;;;;;8.43;2.22;;;24.90;1.00;;;;;;20868167;28;20044;-41
2023/08/12 14:19:26;;;;;;;9.05;2.00;;;24.40;1.00;;;;;;20869043;28;20351;-41
2023/08/12 14:29:27;;;;;;;10.00;2.00;;;24.20;1.00;;;;;;20866729;28;20131;-41
2023/08/12 14:39:27;;;;;;;7.53;1.70;;;23.90;1.00;;;;;;20880636;28;20040;-41
2023/08/12 14:49:28;;;;;;;6.22;1.95;;;24.10;1.00;;;;;;20883767;28;20102;-41
2023/08/12 14:59:28;;;;;;;8.45;2.50;;;23.60;1.00;;;;;;20880209;28;20072;-41
2023/08/12 15:09:29;;;;;;;5.75;1.83;;;23.30;1.00;;;;;;20876571;28;20554;-41
2023/08/12 15:19:30;;;;;;;4.63;1.73;;;23.30;1.00;;;;;;20880827;28;20041;-41
2023/08/12 15:29:30;;;;;;;6.60;1.63;;;23.30;1.00;;;;;;20875625;28;20531;-41
2023/08/12 15:39:31;;;;;;;6.05;1.77;;;23.40;1.00;;;;;;20875363;28;20052;-41
2023/08/12 15:49:33;;;;;;;6.90;1.70;;;23.10;1.00;;;;;;20872356;28;20048;-42
2023/08/12 15:59:33;;;;;;;5.47;1.42;;;23.00;1.00;;;;;;20875530;28;20809;-41
2023/08/12 16:09:34;;;;;;;8.68;2.10;;;22.80;1.00;;;;;;20878385;28;20064;-41
2023/08/12 16:19:35;;;;;;;6.18;1.77;;;22.80;1.00;;;;;;20874919;28;20588;-41
2023/08/12 16:29:35;;;;;;;6.53;1.88;;;22.80;1.00;;;;;;20874545;28;20056;-41
2023/08/12 16:39:36;;;;;;;7.95;1.90;;;22.50;1.00;;;;;;20875884;28;20041;-41
2023/08/12 16:49:37;;;;;;;10.40;2.95;;;22.40;1.00;;;;;;20873779;28;20405;-41
2023/08/12 16:59:37;;;;;;;6.43;2.85;;;22.20;1.00;;;;;;20869626;28;20038;-41
2023/08/12 17:09:38;;;;;;;6.85;2.00;;;22.10;1.00;;;;;;20869890;28;20465;-41
2023/08/12 17:19:38;;;;;;;10.25;2.42;;;22.20;1.00;;;;;;20870396;28;20386;-41
2023/08/12 17:29:39;;;;;;;6.18;1.75;;;22.00;1.00;;;;;;20866364;28;20045;-41
2023/08/12 17:39:39;;;;;;;11.60;2.95;;;21.90;1.00;;;;;;20869462;28;20071;-41
2023/08/12 17:49:40;;;;;;;7.40;1.80;;;21.80;1.00;;;;;;20867276;28;20460;-41
2023/08/12 17:59:40;;;;;;;7.15;1.80;;;21.50;1.00;;;;;;20866758;28;20041;-41
2023/08/12 18:09:41;;;;;;;12.27;3.20;;;21.40;1.00;;;;;;20874191;28;20585;-41
2023/08/12 18:19:42;;;;;;;10.02;2.70;;;21.30;1.00;;;;;;20885717;28;20374;-41
2023/08/12 18:29:44;;;;;;;8.07;2.15;;;21.20;1.00;;;;;;20883295;28;20099;-41
2023/08/12 18:39:45;;;;;;;12.32;2.38;;;20.70;1.00;;;;;;20879931;28;20025;-41
2023/08/12 18:49:45;;;;;;;9.38;3.03;;;20.50;1.00;;;;;;20877870;28;20060;-41
2023/08/12 18:59:46;;;;;;;9.18;2.08;;;20.40;1.00;;;;;;20873668;28;20052;-41
2023/08/12 19:09:46;;;;;;;8.55;2.42;;;20.20;1.00;;;;;;20875253;28;20036;-41
2023/08/12 19:19:47;;;;;;;8.85;2.40;;;20.10;1.00;;;;;;20878129;28;20516;-41
2023/08/12 19:29:47;;;;;;;6.18;1.60;;;20.10;1.00;;;;;;20872622;28;20049;-41
2023/08/12 19:39:48;;;;;;;6.15;1.83;;;20.10;1.00;;;;;;20875322;28;20051;-41
2023/08/12 19:49:49;;;;;;;7.55;1.55;;;20.00;1.00;;;;;;20877488;28;20064;-41
2023/08/12 19:59:49;;;;;;;6.67;1.90;;;19.90;1.00;;;;;;20873994;28;20247;-41
2023/08/12 20:09:50;;;;;;;9.80;1.92;;;19.60;1.00;;;;;;20877324;28;20501;-41
2023/08/12 20:19:50;;;;;;;7.50;1.70;;;19.50;1.00;;;;;;20873852;28;20033;-41
2023/08/12 20:29:51;;;;;;;6.97;1.80;;;19.30;1.00;;;;;;20872566;28;20132;-41
2023/08/12 20:39:51;;;;;;;11.73;2.20;;;19.30;1.00;;;;;;20874617;28;20033;-41
2023/08/12 20:49:52;;;;;;;8.25;2.20;;;19.30;1.00;;;;;;20872939;28;20036;-42
2023/08/12 20:59:52;;;;;;;10.27;2.50;;;19.20;1.00;;;;;;20870214;28;20037;-41
2023/08/12 21:09:53;;;;;;;10.27;2.70;;;19.00;1.00;;;;;;20868136;28;20045;-41
2023/08/12 21:19:53;;;;;;;13.02;2.35;;;19.00;1.00;;;;;;20870736;28;20464;-41
2023/08/12 21:29:54;;;;;;;11.02;2.33;;;18.70;1.00;;;;;;20868225;28;20033;-41
2023/08/12 21:39:54;;;;;;;9.90;2.45;;;18.70;1.00;;;;;;20870789;28;20035;-41
2023/08/12 21:49:55;;;;;;;8.60;2.40;;;18.60;1.00;;;;;;20869063;28;20095;-41
2023/08/12 21:59:56;;;;;;;11.98;2.60;;;18.50;1.00;;;;;;20866510;28;20037;-41
2023/08/12 22:09:57;;;;;;;10.40;2.60;;;18.30;1.00;;;;;;20868337;28;20040;-41
2023/08/12 22:19:58;;;;;;;12.63;2.78;;;18.30;1.00;;;;;;20868520;28;20048;-41
2023/08/12 22:29:58;;;;;;;8.77;2.63;;;18.30;1.00;;;;;;20866066;28;20045;-41
2023/08/12 22:39:59;;;;;;;11.95;3.25;;;18.40;1.00;;;;;;20865723;28;20044;-41
2023/08/12 22:49:59;;;;;;;12.02;2.65;;;18.40;1.00;;;;;;20866495;28;20044;-41
2023/08/12 23:00:00;;;;;;;12.27;2.80;;;18.30;1.00;;;;;;20877684;28;20029;-41
2023/08/12 23:10:01;;;;;;;11.13;2.85;;;18.30;1.00;;;;;;20881152;28;20453;-41
2023/08/12 23:20:05;;;;;;;8.70;2.63;;;18.20;1.00;;;;;;20880860;28;20033;-41
2023/08/12 23:30:06;;;;;;;12.88;2.55;;;18.00;1.00;;;;;;20878553;28;20302;-41
2023/08/12 23:40:07;;;;;;;14.02;3.10;;;18.00;1.00;;;;;;20879457;28;20037;-41
2023/08/12 23:50:11;;;;;;;8.32;2.47;;;17.90;1.00;;;;;;20876924;28;20231;-41
